createdAt,value
2019-05-18T00:00:18.677Z,13.00
2019-05-18T00:02:47.164Z,13.10
2019-05-18T00:05:16.000Z,13.20
2019-05-18T00:07:44.664Z,13.20
2019-05-18T00:10:13.671Z,13.30
2019-05-18T00:12:42.216Z,13.30
2019-05-18T00:15:10.964Z,13.30
2019-05-18T00:17:39.503Z,13.30
2019-05-18T00:20:08.577Z,13.30
2019-05-18T00:22:37.121Z,13.30
2019-05-18T00:25:09.162Z,13.00
2019-05-18T00:27:37.726Z,13.00
2019-05-18T00:30:09.769Z,12.80
2019-05-18T00:32:38.312Z,12.80
2019-05-18T00:35:07.858Z,12.80
2019-05-18T00:37:36.496Z,13.00
2019-05-18T00:40:07.113Z,13.10
2019-05-18T00:42:35.595Z,13.10
2019-05-18T00:45:06.584Z,13.10
2019-05-18T00:47:41.437Z,13.10
2019-05-18T00:50:07.164Z,13.10
2019-05-18T00:52:35.754Z,13.20
2019-05-18T00:55:06.611Z,13.10
2019-05-18T00:57:35.104Z,13.10
2019-05-18T01:00:06.398Z,12.90
2019-05-18T01:02:34.897Z,12.90
2019-05-18T01:05:04.525Z,12.90
2019-05-18T01:07:33.033Z,12.90
2019-05-18T01:10:01.523Z,12.70
2019-05-18T01:12:30.072Z,12.70
2019-05-18T01:14:58.587Z,12.90
2019-05-18T01:17:27.156Z,12.90
2019-05-18T01:19:55.647Z,12.80
2019-05-18T01:22:24.187Z,12.80
2019-05-18T01:24:52.763Z,13.00
2019-05-18T01:27:21.317Z,13.10
2019-05-18T01:29:49.835Z,13.10
2019-05-18T01:32:18.353Z,13.10
2019-05-18T01:34:46.976Z,13.00
2019-05-18T01:37:15.451Z,13.00
2019-05-18T01:39:44.034Z,13.10
2019-05-18T01:42:12.580Z,13.10
2019-05-18T01:44:41.314Z,13.10
2019-05-18T01:47:09.807Z,13.20
2019-05-18T01:49:38.365Z,13.10
2019-05-18T01:52:06.948Z,13.10
2019-05-18T01:54:35.456Z,13.20
2019-05-18T01:57:03.935Z,13.30
2019-05-18T01:59:32.435Z,13.20
2019-05-18T02:02:00.991Z,13.10
2019-05-18T02:04:29.527Z,13.20
2019-05-18T02:06:58.043Z,13.20
2019-05-18T02:09:27.473Z,13.10
2019-05-18T02:11:55.991Z,13.10
2019-05-18T02:14:24.546Z,13.10
2019-05-18T02:16:53.091Z,13.10
2019-05-18T02:19:24.442Z,13.10
2019-05-18T02:21:52.191Z,13.10
2019-05-18T02:24:20.710Z,13.00
2019-05-18T02:26:49.318Z,13.10
2019-05-18T02:29:17.883Z,12.90
2019-05-18T02:31:46.426Z,12.90
2019-05-18T02:34:15.066Z,13.00
2019-05-18T02:36:43.591Z,12.90
2019-05-18T02:39:12.184Z,12.80
2019-05-18T02:41:40.675Z,13.00
2019-05-18T02:44:09.263Z,12.80
2019-05-18T02:46:37.805Z,12.90
2019-05-18T02:49:06.438Z,12.80
2019-05-18T02:51:35.022Z,12.90
2019-05-18T02:54:03.503Z,13.00
2019-05-18T02:56:32.012Z,12.90
2019-05-18T02:59:00.507Z,12.90
2019-05-18T03:01:28.972Z,12.80
2019-05-18T03:03:57.474Z,12.90
2019-05-18T03:06:25.972Z,12.90
2019-05-18T03:08:54.569Z,12.70
2019-05-18T03:11:23.077Z,12.80
2019-05-18T03:13:51.549Z,12.90
2019-05-18T03:16:20.065Z,12.80
2019-05-18T03:19:06.280Z,12.80
2019-05-18T03:21:18.764Z,12.80
2019-05-18T03:23:47.338Z,12.80
2019-05-18T03:26:15.910Z,12.90
2019-05-18T03:28:44.397Z,13.00
2019-05-18T03:31:12.875Z,12.90
2019-05-18T03:33:41.459Z,13.00
2019-05-18T03:36:10.021Z,13.00
2019-05-18T03:38:38.528Z,13.00
2019-05-18T03:41:07.039Z,12.90
2019-05-18T03:43:35.531Z,12.90
2019-05-18T03:46:04.153Z,12.80
2019-05-18T03:48:32.653Z,12.70
2019-05-18T03:51:01.278Z,12.80
2019-05-18T03:53:29.752Z,12.90
2019-05-18T03:55:58.270Z,13.00
2019-05-18T03:58:26.809Z,13.00
2019-05-18T04:00:55.310Z,13.00
2019-05-18T04:03:23.876Z,13.00
2019-05-18T04:05:52.359Z,12.90
2019-05-18T04:08:20.936Z,13.00
2019-05-18T04:10:49.455Z,12.90
2019-05-18T04:13:18.044Z,13.00
2019-05-18T04:15:46.548Z,13.00
2019-05-18T04:18:15.060Z,13.00
2019-05-18T04:20:43.567Z,13.00
2019-05-18T04:23:12.055Z,13.10
2019-05-18T04:25:43.740Z,13.10
2019-05-18T04:28:10.821Z,13.10
2019-05-18T04:30:39.328Z,13.10
2019-05-18T04:33:07.849Z,13.00
2019-05-18T04:35:36.364Z,13.10
2019-05-18T04:38:04.878Z,13.20
2019-05-18T04:40:33.456Z,13.20
2019-05-18T04:43:01.939Z,12.90
2019-05-18T04:45:30.463Z,13.10
2019-05-18T04:47:58.989Z,13.20
2019-05-18T04:50:27.597Z,13.10
2019-05-18T04:52:56.156Z,13.10
2019-05-18T04:55:24.636Z,13.10
2019-05-18T04:57:53.157Z,13.10
2019-05-18T05:00:21.712Z,13.00
2019-05-18T05:02:50.265Z,13.10
2019-05-18T05:05:18.742Z,13.20
2019-05-18T05:07:47.318Z,13.20
2019-05-18T05:10:15.959Z,13.20
2019-05-18T05:12:44.508Z,13.20
2019-05-18T05:15:13.062Z,13.30
2019-05-18T05:17:41.564Z,13.20
2019-05-18T05:20:19.395Z,13.30
2019-05-18T05:22:40.533Z,13.40
2019-05-18T05:25:09.137Z,13.50
2019-05-18T05:27:37.609Z,13.50
2019-05-18T05:30:08.248Z,13.50
2019-05-18T05:32:36.731Z,13.50
2019-05-18T05:35:06.545Z,13.40
2019-05-18T05:37:35.088Z,13.50
2019-05-18T05:40:05.188Z,13.50
2019-05-18T05:42:33.727Z,13.60
2019-05-18T05:45:02.268Z,13.70
2019-05-18T05:47:30.762Z,13.80
2019-05-18T05:49:59.325Z,13.60
2019-05-18T05:52:27.837Z,13.50
2019-05-18T05:54:56.327Z,13.50
2019-05-18T05:57:24.801Z,13.70
2019-05-18T05:59:53.297Z,13.70
2019-05-18T06:02:21.768Z,13.90
2019-05-18T06:04:51.086Z,13.90
2019-05-18T06:07:19.567Z,13.80
2019-05-18T06:09:48.053Z,13.60
2019-05-18T06:12:16.713Z,13.60
2019-05-18T06:14:45.227Z,13.60
2019-05-18T06:17:13.740Z,13.70
2019-05-18T06:19:42.381Z,13.90
2019-05-18T06:22:10.902Z,13.90
2019-05-18T06:24:39.451Z,13.90
2019-05-18T06:27:08.071Z,14.10
2019-05-18T06:29:36.618Z,14.10
2019-05-18T06:32:05.162Z,14.20
2019-05-18T06:34:33.657Z,14.40
2019-05-18T06:37:02.208Z,14.60
2019-05-18T06:39:30.702Z,14.70
2019-05-18T06:41:59.209Z,15.00
2019-05-18T06:44:27.713Z,15.00
2019-05-18T06:46:56.262Z,15.10
2019-05-18T06:49:24.750Z,15.10
2019-05-18T06:51:53.221Z,15.00
2019-05-18T06:54:21.698Z,15.20
2019-05-18T06:56:51.045Z,15.20
2019-05-18T06:59:19.948Z,15.50
2019-05-18T07:01:48.443Z,15.50
2019-05-18T07:04:17.008Z,15.80
2019-05-18T07:06:45.524Z,16.00
2019-05-18T07:09:14.614Z,15.90
2019-05-18T07:11:43.229Z,16.20
2019-05-18T07:14:24.987Z,16.30
2019-05-18T07:16:42.015Z,16.40
2019-05-18T07:19:10.577Z,16.50
2019-05-18T07:21:39.091Z,16.50
2019-05-18T07:24:07.615Z,16.80
2019-05-18T07:26:36.461Z,16.90
2019-05-18T07:29:05.739Z,17.20
2019-05-18T07:31:34.475Z,16.80
2019-05-18T07:34:03.125Z,17.20
2019-05-18T07:36:31.710Z,17.40
2019-05-18T07:39:00.698Z,17.70
2019-05-18T07:41:29.197Z,17.70
2019-05-18T07:43:57.747Z,17.70
2019-05-18T07:46:26.248Z,17.80
2019-05-18T07:48:54.726Z,18.10
2019-05-18T07:51:36.280Z,18.20
2019-05-18T07:53:53.443Z,18.00
2019-05-18T07:56:22.050Z,17.90
2019-05-18T07:58:50.593Z,18.10
2019-05-18T08:01:19.082Z,18.30
2019-05-18T08:03:47.673Z,18.30
2019-05-18T08:06:16.232Z,18.30
2019-05-18T08:08:44.850Z,18.10
2019-05-18T08:11:13.399Z,17.70
2019-05-18T08:13:41.966Z,18.00
2019-05-18T08:16:10.469Z,18.40
2019-05-18T08:18:39.014Z,18.70
2019-05-18T08:21:07.600Z,18.60
2019-05-18T08:23:36.069Z,18.50
2019-05-18T08:26:04.569Z,18.40
2019-05-18T08:28:33.133Z,18.70
2019-05-18T08:31:01.609Z,18.90
2019-05-18T08:33:30.168Z,19.20
2019-05-18T08:35:58.697Z,19.40
2019-05-18T08:38:27.170Z,19.50
2019-05-18T08:40:55.719Z,19.40
2019-05-18T08:43:24.223Z,19.60
2019-05-18T08:45:52.735Z,19.70
2019-05-18T08:48:21.223Z,19.60
2019-05-18T08:50:49.883Z,19.40
2019-05-18T08:53:18.491Z,19.30
2019-05-18T08:55:47.094Z,19.30
2019-05-18T08:58:15.556Z,19.20
2019-05-18T09:00:44.125Z,19.10
2019-05-18T09:03:12.702Z,19.90
2019-05-18T09:05:41.899Z,19.90
2019-05-18T09:08:10.413Z,20.30
2019-05-18T09:10:40.354Z,20.60
2019-05-18T09:13:08.853Z,20.70
2019-05-18T09:15:37.395Z,20.70
2019-05-18T09:18:05.956Z,20.20
2019-05-18T09:20:34.535Z,20.20
2019-05-18T09:23:03.060Z,19.60
2019-05-18T09:25:31.621Z,19.40
2019-05-18T09:28:00.106Z,20.00
2019-05-18T09:30:28.661Z,20.00
2019-05-18T09:32:57.829Z,19.00
2019-05-18T09:35:26.395Z,19.60
2019-05-18T09:37:55.029Z,19.90
2019-05-18T09:40:23.642Z,19.70
2019-05-18T09:42:52.358Z,19.40
2019-05-18T09:45:21.696Z,20.10
2019-05-18T09:47:50.396Z,20.20
2019-05-18T09:50:19.033Z,20.20
2019-05-18T09:52:47.533Z,20.10
2019-05-18T09:55:16.459Z,20.50
2019-05-18T09:57:44.967Z,21.00
2019-05-18T10:00:14.334Z,21.40
2019-05-18T10:02:42.914Z,21.40
2019-05-18T10:05:11.714Z,21.80
2019-05-18T10:07:40.267Z,22.00
2019-05-18T10:10:10.572Z,21.90
2019-05-18T10:12:39.162Z,21.40
2019-05-18T10:15:08.784Z,21.30
2019-05-18T10:17:37.294Z,21.30
2019-05-18T10:20:07.748Z,21.30
2019-05-18T10:22:36.311Z,20.80
2019-05-18T10:25:06.539Z,20.70
2019-05-18T10:27:35.145Z,20.80
2019-05-18T10:30:06.196Z,21.30
2019-05-18T10:32:34.746Z,21.40
2019-05-18T10:35:03.745Z,21.30
2019-05-18T10:37:32.329Z,21.20
2019-05-18T10:40:00.827Z,21.50
2019-05-18T10:42:29.409Z,21.60
2019-05-18T10:44:57.976Z,22.00
2019-05-18T10:47:26.476Z,22.30
2019-05-18T10:49:54.983Z,22.00
2019-05-18T10:52:23.540Z,22.30
2019-05-18T10:54:52.116Z,22.70
2019-05-18T10:57:20.628Z,22.50
2019-05-18T10:59:49.179Z,22.30
2019-05-18T11:02:17.762Z,22.60
2019-05-18T11:04:46.304Z,22.70
2019-05-18T11:07:14.842Z,22.90
2019-05-18T11:09:43.325Z,23.50
2019-05-18T11:12:11.802Z,23.60
2019-05-18T11:14:40.473Z,23.80
2019-05-18T11:17:09.027Z,23.60
2019-05-18T11:19:37.571Z,23.60
2019-05-18T11:22:06.975Z,24.20
2019-05-18T11:24:35.530Z,24.20
2019-05-18T11:27:04.257Z,24.10
2019-05-18T11:29:32.802Z,23.70
2019-05-18T11:32:01.381Z,23.50
2019-05-18T11:34:29.919Z,23.20
2019-05-18T11:36:58.516Z,22.90
2019-05-18T11:39:27.093Z,23.40
2019-05-18T11:41:55.568Z,23.50
2019-05-18T11:44:24.039Z,23.50
2019-05-18T11:46:52.696Z,23.90
2019-05-18T11:49:21.260Z,24.00
2019-05-18T11:51:49.908Z,24.00
2019-05-18T11:54:18.494Z,23.00
2019-05-18T11:56:47.032Z,23.10
2019-05-18T11:59:15.991Z,23.30
2019-05-18T12:01:44.563Z,23.40
2019-05-18T12:04:13.415Z,23.20
2019-05-18T12:06:42.075Z,22.80
2019-05-18T12:09:10.750Z,22.90
2019-05-18T12:11:39.305Z,23.40
2019-05-18T12:14:07.889Z,23.40
2019-05-18T12:16:36.534Z,23.70
2019-05-18T12:19:05.108Z,23.10
2019-05-18T12:21:33.715Z,23.00
2019-05-18T12:24:14.979Z,22.40
2019-05-18T12:26:32.492Z,22.60
2019-05-18T12:29:01.010Z,22.90
2019-05-18T12:31:29.492Z,23.20
2019-05-18T12:33:58.043Z,23.60
2019-05-18T12:36:26.632Z,23.10
2019-05-18T12:38:55.168Z,22.30
2019-05-18T12:41:43.082Z,22.00
2019-05-18T12:44:11.584Z,22.20
2019-05-18T12:46:40.179Z,22.00
2019-05-18T12:49:08.867Z,22.10
2019-05-18T12:51:38.037Z,21.90
2019-05-18T12:54:06.977Z,21.90
2019-05-18T12:56:35.483Z,21.60
2019-05-18T12:59:04.164Z,21.70
2019-05-18T13:01:32.648Z,22.20
2019-05-18T13:04:01.159Z,22.30
2019-05-18T13:06:29.954Z,22.40
2019-05-18T13:08:58.577Z,22.10
2019-05-18T13:11:27.071Z,21.90
2019-05-18T13:13:55.561Z,22.20
2019-05-18T13:16:24.340Z,22.70
2019-05-18T13:18:52.843Z,22.30
2019-05-18T13:21:21.348Z,21.90
2019-05-18T13:23:49.846Z,21.70
2019-05-18T13:26:18.324Z,22.20
2019-05-18T13:28:46.810Z,22.80
2019-05-18T13:31:15.323Z,23.00
2019-05-18T13:33:43.796Z,22.90
2019-05-18T13:36:12.445Z,22.60
2019-05-18T13:38:40.958Z,22.60
2019-05-18T13:41:09.536Z,22.40
2019-05-18T13:43:38.026Z,22.50
2019-05-18T13:46:06.696Z,22.60
2019-05-18T13:48:35.279Z,22.50
2019-05-18T13:51:03.837Z,21.90
2019-05-18T13:53:32.397Z,21.90
2019-05-18T13:56:01.811Z,21.80
2019-05-18T13:58:30.316Z,21.90
2019-05-18T14:00:58.908Z,21.90
2019-05-18T14:03:27.498Z,22.00
2019-05-18T14:05:55.987Z,21.90
2019-05-18T14:08:24.582Z,21.90
2019-05-18T14:10:53.113Z,22.10
2019-05-18T14:13:21.741Z,21.70
2019-05-18T14:15:50.270Z,21.50
2019-05-18T14:18:18.749Z,21.90
2019-05-18T14:20:47.272Z,22.20
2019-05-18T14:23:15.834Z,22.20
2019-05-18T14:25:46.135Z,22.40
2019-05-18T14:28:14.794Z,22.40
2019-05-18T14:30:43.365Z,22.30
2019-05-18T14:33:11.932Z,22.10
2019-05-18T14:35:40.403Z,22.20
2019-05-18T14:38:08.910Z,22.20
2019-05-18T14:40:37.400Z,22.20
2019-05-18T14:43:06.034Z,22.40
2019-05-18T14:45:34.618Z,22.30
2019-05-18T14:48:03.103Z,22.00
2019-05-18T14:50:32.044Z,21.60
2019-05-18T14:53:00.536Z,21.70
2019-05-18T14:55:33.773Z,21.80
2019-05-18T14:57:59.225Z,22.00
2019-05-18T15:00:27.784Z,21.90
2019-05-18T15:02:56.357Z,21.90
2019-05-18T15:05:24.834Z,21.60
2019-05-18T15:07:53.523Z,21.50
2019-05-18T15:10:22.189Z,21.60
2019-05-18T15:12:50.810Z,21.90
2019-05-18T15:15:19.531Z,22.00
2019-05-18T15:17:48.086Z,22.00
2019-05-18T15:20:17.686Z,22.10
2019-05-18T15:22:46.163Z,22.00
2019-05-18T15:25:14.748Z,22.00
2019-05-18T15:27:43.328Z,22.00
2019-05-18T15:30:12.249Z,22.00
2019-05-18T15:32:40.743Z,22.10
2019-05-18T15:35:10.429Z,22.20
2019-05-18T15:37:39.586Z,22.00
2019-05-18T15:40:09.376Z,22.10
2019-05-18T15:42:37.885Z,22.10
2019-05-18T15:45:08.511Z,22.00
2019-05-18T15:47:37.143Z,22.10
2019-05-18T15:50:06.656Z,22.20
2019-05-18T15:52:35.249Z,22.20
2019-05-18T15:55:05.361Z,22.10
2019-05-18T15:57:33.852Z,21.90
2019-05-18T16:00:06.369Z,21.70
2019-05-18T16:02:32.752Z,22.00
2019-05-18T16:05:01.281Z,21.90
2019-05-18T16:07:30.021Z,21.80
2019-05-18T16:09:58.514Z,21.70
2019-05-18T16:12:27.890Z,21.80
2019-05-18T16:14:56.466Z,22.00
2019-05-18T16:17:38.344Z,22.00
2019-05-18T16:19:55.158Z,22.00
2019-05-18T16:22:23.663Z,22.00
2019-05-18T16:24:52.169Z,22.00
2019-05-18T16:27:20.837Z,21.50
2019-05-18T16:29:49.356Z,21.50
2019-05-18T16:32:17.866Z,21.50
2019-05-18T16:34:46.423Z,21.40
2019-05-18T16:37:14.926Z,21.40
2019-05-18T16:39:43.405Z,21.50
2019-05-18T16:42:11.899Z,21.40
2019-05-18T16:44:40.391Z,21.40
2019-05-18T16:47:08.885Z,21.30
2019-05-18T16:49:37.467Z,21.30
2019-05-18T16:52:06.092Z,21.30
2019-05-18T16:54:34.658Z,21.40
2019-05-18T16:57:04.796Z,21.50
2019-05-18T16:59:33.282Z,21.50
2019-05-18T17:02:01.770Z,21.50
2019-05-18T17:04:30.277Z,21.70
2019-05-18T17:06:58.839Z,21.40
2019-05-18T17:09:27.427Z,21.20
2019-05-18T17:11:56.008Z,21.20
2019-05-18T17:14:24.664Z,21.20
2019-05-18T17:16:53.264Z,21.20
2019-05-18T17:19:21.867Z,21.20
2019-05-18T17:21:50.502Z,21.20
2019-05-18T17:24:19.008Z,21.30
2019-05-18T17:26:52.788Z,21.40
2019-05-18T17:29:17.809Z,21.50
2019-05-18T17:31:46.364Z,21.20
2019-05-18T17:34:15.174Z,21.20
2019-05-18T17:36:43.698Z,21.30
2019-05-18T17:39:12.196Z,21.40
2019-05-18T17:41:40.689Z,21.30
2019-05-18T17:44:09.253Z,21.30
2019-05-18T17:46:37.789Z,21.40
2019-05-18T17:49:06.300Z,21.40
2019-05-18T17:51:34.850Z,21.50
2019-05-18T17:54:03.424Z,21.40
2019-05-18T17:56:32.031Z,21.50
2019-05-18T17:59:00.614Z,21.50
2019-05-18T18:01:29.259Z,21.20
2019-05-18T18:03:57.753Z,21.10
2019-05-18T18:06:26.316Z,21.00
2019-05-18T18:08:54.865Z,21.10
2019-05-18T18:11:23.592Z,21.00
2019-05-18T18:13:52.085Z,20.90
2019-05-18T18:16:21.395Z,20.80
2019-05-18T18:18:49.969Z,20.70
2019-05-18T18:21:18.688Z,21.00
2019-05-18T18:23:53.940Z,21.00
2019-05-18T18:26:17.561Z,20.90
2019-05-18T18:28:46.090Z,20.70
2019-05-18T18:31:14.642Z,20.70
2019-05-18T18:34:02.528Z,20.60
2019-05-18T18:36:31.122Z,20.50
2019-05-18T18:38:59.630Z,20.50
2019-05-18T18:41:28.206Z,20.40
2019-05-18T18:43:56.707Z,20.70
2019-05-18T18:46:25.207Z,20.50
2019-05-18T18:48:53.774Z,20.30
2019-05-18T18:51:22.280Z,20.20
2019-05-18T18:53:50.853Z,20.20
2019-05-18T18:56:19.484Z,20.10
2019-05-18T18:58:48.012Z,20.00
2019-05-18T19:01:16.570Z,19.90
2019-05-18T19:03:45.124Z,19.90
2019-05-18T19:06:13.756Z,20.00
2019-05-18T19:08:42.329Z,20.00
2019-05-18T19:11:10.805Z,20.10
2019-05-18T19:13:39.409Z,20.00
2019-05-18T19:16:07.948Z,19.70
2019-05-18T19:18:36.491Z,19.70
2019-05-18T19:21:05.136Z,19.30
2019-05-18T19:23:33.712Z,19.20
2019-05-18T19:26:02.295Z,19.00
2019-05-18T19:28:30.796Z,18.90
2019-05-18T19:30:59.357Z,18.90
2019-05-18T19:33:27.858Z,18.70
2019-05-18T19:35:56.420Z,18.80
2019-05-18T19:38:24.960Z,18.80
2019-05-18T19:40:53.505Z,18.50
2019-05-18T19:43:22.032Z,18.30
2019-05-18T19:45:50.619Z,18.30
2019-05-18T19:48:19.176Z,18.20
2019-05-18T19:50:47.726Z,18.20
2019-05-18T19:53:16.276Z,18.30
2019-05-18T19:55:44.805Z,18.30
2019-05-18T19:58:13.948Z,18.20
2019-05-18T20:00:42.531Z,18.30
2019-05-18T20:03:11.214Z,18.10
2019-05-18T20:05:39.820Z,17.90
2019-05-18T20:08:08.400Z,17.80
2019-05-18T20:10:36.953Z,17.70
2019-05-18T20:13:05.441Z,17.70
2019-05-18T20:15:33.941Z,17.90
2019-05-18T20:18:02.512Z,17.90
2019-05-18T20:20:30.993Z,17.70
2019-05-18T20:22:59.505Z,17.60
2019-05-18T20:25:28.046Z,17.50
2019-05-18T20:27:56.609Z,17.60
2019-05-18T20:30:25.187Z,17.60
2019-05-18T20:32:53.693Z,17.70
2019-05-18T20:35:25.476Z,17.50
2019-05-18T20:37:52.449Z,17.70
2019-05-18T20:40:20.948Z,17.80
2019-05-18T20:42:49.502Z,17.80
2019-05-18T20:45:18.042Z,17.50
2019-05-18T20:47:46.557Z,17.40
2019-05-18T20:50:17.055Z,17.50
2019-05-18T20:52:45.562Z,17.60
2019-05-18T20:55:14.267Z,17.50
2019-05-18T20:57:42.752Z,17.40
2019-05-18T21:00:11.687Z,17.30
2019-05-18T21:02:40.237Z,17.30
2019-05-18T21:05:10.344Z,17.30
2019-05-18T21:07:38.939Z,17.40
2019-05-18T21:10:07.863Z,17.40
2019-05-18T21:12:36.412Z,17.30
2019-05-18T21:15:07.266Z,17.10
2019-05-18T21:17:35.811Z,17.20
2019-05-18T21:20:04.995Z,17.30
2019-05-18T21:22:33.471Z,17.20
2019-05-18T21:25:01.958Z,17.20
2019-05-18T21:27:31.486Z,17.40
2019-05-18T21:30:00.078Z,17.30
2019-05-18T21:32:28.874Z,17.10
2019-05-18T21:34:57.577Z,17.10
2019-05-18T21:37:26.327Z,17.10
2019-05-18T21:39:55.022Z,17.30
2019-05-18T21:42:23.583Z,17.20
2019-05-18T21:44:52.106Z,17.20
2019-05-18T21:47:20.608Z,16.90
2019-05-18T21:49:49.180Z,17.00
2019-05-18T21:52:17.845Z,16.70
2019-05-18T21:54:46.408Z,16.70
2019-05-18T21:57:14.944Z,16.80
2019-05-18T21:59:43.523Z,16.80
2019-05-18T22:02:12.226Z,16.90
2019-05-18T22:04:40.701Z,16.90
2019-05-18T22:07:09.325Z,16.60
2019-05-18T22:09:38.070Z,16.70
2019-05-18T22:12:06.802Z,16.60
2019-05-18T22:14:35.464Z,16.50
2019-05-18T22:17:04.162Z,16.40
2019-05-18T22:19:32.803Z,16.40
2019-05-18T22:22:01.294Z,16.40
2019-05-18T22:24:29.901Z,16.40
2019-05-18T22:26:58.917Z,16.40
2019-05-18T22:29:27.435Z,16.40
2019-05-18T22:31:56.001Z,16.30
2019-05-18T22:34:24.509Z,16.30
2019-05-18T22:36:53.270Z,16.20
2019-05-18T22:39:21.773Z,16.10
2019-05-18T22:41:50.256Z,16.30
2019-05-18T22:44:18.760Z,16.40
2019-05-18T22:46:47.261Z,16.30
2019-05-18T22:49:15.743Z,16.30
2019-05-18T22:51:44.293Z,16.30
2019-05-18T22:54:12.863Z,16.20
2019-05-18T22:56:41.480Z,16.10
2019-05-18T22:59:10.013Z,16.20
2019-05-18T23:01:38.626Z,16.30
2019-05-18T23:04:07.105Z,16.30
2019-05-18T23:06:35.656Z,16.40
2019-05-18T23:09:23.530Z,16.50
2019-05-18T23:11:52.094Z,16.50
2019-05-18T23:14:20.600Z,16.50
2019-05-18T23:16:49.085Z,16.50
2019-05-18T23:19:17.649Z,16.40
2019-05-18T23:21:46.144Z,16.40
2019-05-18T23:24:14.697Z,16.50
2019-05-18T23:26:43.238Z,16.40
2019-05-18T23:29:11.759Z,16.50
2019-05-18T23:31:40.316Z,16.30
2019-05-18T23:34:08.898Z,16.20
2019-05-18T23:36:37.379Z,16.10
2019-05-18T23:39:06.632Z,16.30
2019-05-18T23:41:35.274Z,16.20
2019-05-18T23:44:04.047Z,16.30
2019-05-18T23:46:32.595Z,16.10
2019-05-18T23:49:10.300Z,16.20
2019-05-18T23:51:31.334Z,16.30
2019-05-18T23:53:59.904Z,16.30
2019-05-18T23:56:28.380Z,16.30
2019-05-18T23:58:56.905Z,16.30
